createdAt,value
2023-10-09T00:00:33.980Z,17.64
2023-10-09T00:03:02.709Z,17.63
2023-10-09T00:05:40.590Z,17.61
2023-10-09T00:08:10.604Z,17.52
2023-10-09T00:10:46.949Z,17.58
2023-10-09T00:13:16.810Z,17.52
2023-10-09T00:15:45.155Z,17.43
2023-10-09T00:18:13.853Z,17.49
2023-10-09T00:20:44.095Z,17.48
2023-10-09T00:23:17.253Z,17.43
2023-10-09T00:26:09.710Z,17.21
2023-10-09T00:28:42.719Z,17.21
2023-10-09T00:31:16.032Z,17.18
2023-10-09T00:33:44.733Z,17.19
2023-10-09T00:36:19.709Z,17.19
2023-10-09T00:38:52.401Z,17.11
2023-10-09T00:41:26.244Z,16.89
2023-10-09T00:44:00.563Z,16.90
2023-10-09T00:46:30.158Z,16.83
2023-10-09T00:49:04.165Z,16.76
2023-10-09T00:51:37.007Z,16.64
2023-10-09T00:54:15.451Z,16.66
2023-10-09T00:56:53.195Z,16.50
2023-10-09T00:59:25.960Z,16.50
2023-10-09T01:01:59.158Z,16.39
2023-10-09T01:04:33.788Z,16.42
2023-10-09T01:07:10.398Z,16.26
2023-10-09T01:09:39.253Z,16.30
2023-10-09T01:12:08.873Z,16.34
2023-10-09T01:14:42.179Z,16.18
2023-10-09T01:17:13.025Z,16.13
2023-10-09T01:19:44.293Z,16.13
2023-10-09T01:22:16.012Z,16.04
2023-10-09T01:24:45.523Z,15.91
2023-10-09T01:27:16.638Z,15.98
2023-10-09T01:29:47.794Z,15.83
2023-10-09T01:32:20.669Z,15.79
2023-10-09T01:34:51.077Z,15.60
2023-10-09T01:37:23.728Z,15.63
2023-10-09T01:40:00.488Z,15.55
2023-10-09T01:42:35.751Z,15.42
2023-10-09T01:45:17.327Z,15.38
2023-10-09T01:47:52.978Z,15.34
2023-10-09T01:50:23.548Z,15.21
2023-10-09T01:52:52.665Z,15.15
2023-10-09T01:55:34.321Z,15.15
2023-10-09T01:58:18.238Z,15.07
2023-10-09T02:00:50.501Z,15.01
2023-10-09T02:03:19.960Z,14.96
2023-10-09T02:05:50.806Z,14.87
2023-10-09T02:08:23.168Z,14.67
2023-10-09T02:10:56.307Z,14.58
2023-10-09T02:13:30.462Z,14.52
2023-10-09T02:16:14.550Z,14.47
2023-10-09T02:18:54.513Z,14.39
2023-10-09T02:21:33.997Z,14.46
2023-10-09T02:24:06.907Z,14.26
2023-10-09T02:27:02.653Z,14.32
2023-10-09T02:29:36.486Z,14.34
2023-10-09T02:32:14.993Z,14.12
2023-10-09T02:34:47.695Z,14.13
2023-10-09T02:37:16.092Z,14.17
2023-10-09T02:39:48.368Z,14.07
2023-10-09T02:42:28.085Z,14.04
2023-10-09T02:44:57.447Z,14.00
2023-10-09T02:47:30.908Z,13.85
2023-10-09T02:50:07.816Z,13.81
2023-10-09T02:52:42.342Z,13.67
2023-10-09T02:55:15.310Z,13.57
2023-10-09T02:57:46.531Z,13.60
2023-10-09T03:00:20.755Z,13.54
2023-10-09T03:02:51.474Z,13.46
2023-10-09T03:05:21.984Z,13.51
2023-10-09T03:07:51.369Z,13.32
2023-10-09T03:10:19.512Z,13.18
2023-10-09T03:12:52.986Z,13.33
2023-10-09T03:15:21.607Z,13.34
2023-10-09T03:17:50.501Z,13.26
2023-10-09T03:20:19.785Z,13.17
2023-10-09T03:22:49.356Z,13.20
2023-10-09T03:25:18.294Z,13.08
2023-10-09T03:27:48.173Z,12.92
2023-10-09T03:30:24.063Z,13.13
2023-10-09T03:32:53.573Z,13.01
2023-10-09T03:35:27.421Z,12.96
2023-10-09T03:38:01.375Z,12.89
2023-10-09T03:40:29.957Z,12.88
2023-10-09T03:43:02.501Z,12.81
2023-10-09T03:45:32.817Z,12.83
2023-10-09T03:48:07.032Z,12.77
2023-10-09T03:50:38.754Z,12.77
2023-10-09T03:53:09.191Z,12.63
2023-10-09T03:55:39.605Z,12.70
2023-10-09T03:58:13.031Z,12.50
2023-10-09T04:00:47.004Z,12.53
2023-10-09T04:03:17.002Z,12.54
2023-10-09T04:05:45.964Z,12.52
2023-10-09T04:08:20.639Z,12.46
2023-10-09T04:10:58.861Z,12.44
2023-10-09T04:13:35.035Z,12.43
2023-10-09T04:16:12.596Z,12.40
2023-10-09T04:18:41.535Z,12.29
2023-10-09T04:21:20.894Z,12.25
2023-10-09T04:24:06.965Z,12.13
2023-10-09T04:26:36.334Z,12.20
2023-10-09T04:29:06.836Z,12.13
2023-10-09T04:31:38.636Z,12.04
2023-10-09T04:34:36.101Z,12.07
2023-10-09T04:37:20.972Z,12.10
2023-10-09T04:39:48.443Z,12.14
2023-10-09T04:42:37.021Z,12.08
2023-10-09T04:45:37.033Z,11.95
2023-10-09T04:48:10.268Z,12.03
2023-10-09T04:51:04.326Z,12.04
2023-10-09T04:53:40.562Z,11.90
2023-10-09T04:56:16.800Z,11.90
2023-10-09T04:58:47.343Z,12.02
2023-10-09T05:01:23.222Z,11.99
2023-10-09T05:03:58.213Z,12.01
2023-10-09T05:06:51.524Z,11.86
2023-10-09T05:09:21.778Z,11.88
2023-10-09T05:11:57.599Z,12.04
2023-10-09T05:14:40.038Z,11.91
2023-10-09T05:17:17.331Z,11.88
2023-10-09T05:19:56.106Z,12.03
2023-10-09T05:22:38.900Z,12.02
2023-10-09T05:25:17.477Z,12.06
2023-10-09T05:27:51.950Z,11.91
2023-10-09T05:30:27.111Z,12.09
2023-10-09T05:33:00.006Z,12.04
2023-10-09T05:36:00.653Z,12.09
2023-10-09T05:38:31.920Z,12.02
2023-10-09T05:41:19.146Z,11.93
2023-10-09T05:44:04.625Z,12.03
2023-10-09T05:46:37.950Z,12.02
2023-10-09T05:49:21.356Z,11.88
2023-10-09T05:51:54.422Z,11.85
2023-10-09T05:54:39.994Z,11.92
2023-10-09T05:57:25.383Z,11.99
2023-10-09T06:00:10.988Z,12.02
2023-10-09T06:03:02.138Z,12.16
2023-10-09T06:05:52.841Z,12.08
2023-10-09T06:08:26.187Z,12.19
2023-10-09T06:11:07.136Z,12.15
2023-10-09T06:13:47.162Z,12.19
2023-10-09T06:16:42.745Z,12.24
2023-10-09T06:19:14.542Z,12.18
2023-10-09T06:22:07.838Z,12.20
2023-10-09T06:24:42.955Z,12.35
2023-10-09T06:27:15.018Z,12.41
2023-10-09T06:30:14.282Z,12.53
2023-10-09T06:32:51.743Z,12.57
2023-10-09T06:35:23.256Z,12.53
2023-10-09T06:38:11.497Z,12.49
2023-10-09T06:41:12.997Z,12.45
2023-10-09T06:43:49.058Z,12.45
2023-10-09T06:46:44.355Z,12.63
2023-10-09T06:49:41.471Z,12.71
2023-10-09T06:52:38.338Z,12.75
2023-10-09T06:55:20.341Z,12.75
2023-10-09T06:57:50.360Z,12.90
2023-10-09T07:00:36.391Z,12.81
2023-10-09T07:03:12.825Z,12.88
2023-10-09T07:06:01.868Z,12.89
2023-10-09T07:08:38.031Z,12.92
2023-10-09T07:11:54.767Z,13.07
2023-10-09T07:14:54.956Z,13.11
2023-10-09T07:17:44.198Z,13.24
2023-10-09T07:20:16.919Z,13.18
2023-10-09T07:23:14.902Z,13.25
2023-10-09T07:25:56.088Z,13.32
2023-10-09T07:28:38.215Z,13.36
2023-10-09T07:31:10.358Z,13.45
2023-10-09T07:36:39.288Z,13.54
2023-10-09T07:39:18.788Z,13.57
2023-10-09T07:41:56.917Z,13.45
2023-10-09T07:44:39.509Z,13.37
2023-10-09T07:47:24.054Z,13.65
2023-10-09T07:49:55.430Z,13.79
2023-10-09T07:52:27.447Z,13.73
2023-10-09T07:55:02.874Z,13.87
2023-10-09T07:57:40.765Z,14.06
2023-10-09T08:00:29.751Z,14.09
2023-10-09T08:03:01.614Z,14.03
2023-10-09T08:05:34.692Z,13.98
2023-10-09T08:08:36.106Z,14.12
2023-10-09T08:11:26.819Z,14.06
2023-10-09T08:14:03.969Z,14.07
2023-10-09T08:16:40.444Z,14.33
2023-10-09T08:19:33.741Z,14.47
2023-10-09T08:22:34.922Z,14.62
2023-10-09T08:25:04.797Z,14.75
2023-10-09T08:27:56.036Z,14.87
2023-10-09T08:30:42.222Z,15.02
2023-10-09T08:36:06.831Z,14.78
2023-10-09T08:38:35.706Z,14.55
2023-10-09T08:41:18.992Z,14.60
2023-10-09T08:43:52.622Z,14.79
2023-10-09T08:46:28.282Z,14.78
2023-10-09T08:48:58.099Z,14.95
2023-10-09T08:51:27.430Z,14.82
2023-10-09T08:53:55.813Z,14.85
2023-10-09T08:56:25.537Z,14.85
2023-10-09T08:58:54.284Z,15.00
2023-10-09T09:01:24.007Z,14.81
2023-10-09T09:03:52.983Z,14.93
2023-10-09T09:06:21.465Z,14.96
2023-10-09T09:08:49.906Z,14.91
2023-10-09T09:11:23.747Z,15.19
2023-10-09T09:14:07.952Z,15.20
2023-10-09T09:16:37.988Z,15.22
2023-10-09T09:19:19.019Z,15.39
2023-10-09T09:21:55.824Z,15.39
2023-10-09T09:24:34.552Z,15.52
2023-10-09T09:27:14.223Z,15.81
2023-10-09T09:29:49.357Z,16.09
2023-10-09T09:32:21.898Z,16.19
2023-10-09T09:34:55.649Z,16.55
2023-10-09T09:37:29.969Z,16.81
2023-10-09T09:40:02.109Z,17.32
2023-10-09T09:42:33.714Z,17.80
2023-10-09T09:45:05.259Z,17.79
2023-10-09T09:47:37.247Z,18.37
2023-10-09T09:50:15.084Z,18.66
2023-10-09T09:52:43.445Z,18.81
2023-10-09T09:55:19.347Z,18.94
2023-10-09T09:57:53.097Z,18.99
2023-10-09T10:00:32.128Z,19.13
2023-10-09T10:03:07.151Z,19.15
2023-10-09T10:05:36.811Z,19.42
2023-10-09T10:08:13.485Z,19.80
2023-10-09T10:10:51.489Z,19.80
2023-10-09T10:13:29.150Z,19.95
2023-10-09T10:16:11.558Z,20.29
2023-10-09T10:18:57.327Z,20.56
2023-10-09T10:21:39.085Z,20.63
2023-10-09T10:24:29.580Z,19.91
2023-10-09T10:27:25.321Z,19.54
2023-10-09T10:30:27.080Z,19.82
2023-10-09T10:33:10.651Z,20.33
2023-10-09T10:35:47.517Z,20.84
2023-10-09T10:38:34.130Z,21.27
2023-10-09T10:41:13.834Z,21.46
2023-10-09T10:44:22.101Z,21.48
2023-10-09T10:46:53.619Z,21.64
2023-10-09T10:49:27.641Z,21.74
2023-10-09T10:52:02.884Z,21.90
2023-10-09T10:55:06.821Z,22.10
2023-10-09T10:57:57.293Z,22.44
2023-10-09T11:00:41.773Z,22.94
2023-10-09T11:03:18.766Z,22.53
2023-10-09T11:05:53.084Z,22.53
2023-10-09T11:08:31.706Z,22.83
2023-10-09T11:11:16.946Z,22.97
2023-10-09T11:13:59.050Z,23.20
2023-10-09T11:16:50.805Z,23.12
2023-10-09T11:19:32.850Z,23.37
2023-10-09T11:22:33.159Z,23.67
2023-10-09T11:25:13.851Z,23.53
2023-10-09T11:27:51.424Z,23.61
2023-10-09T11:30:34.217Z,23.61
2023-10-09T11:33:06.323Z,23.91
2023-10-09T11:35:36.145Z,23.95
2023-10-09T11:38:22.403Z,23.70
2023-10-09T11:41:07.396Z,23.65
2023-10-09T11:43:53.912Z,23.66
2023-10-09T11:46:49.732Z,23.89
2023-10-09T11:49:33.487Z,24.09
2023-10-09T11:52:26.105Z,24.30
2023-10-09T11:54:57.762Z,24.66
2023-10-09T11:57:32.039Z,24.76
2023-10-09T12:00:01.119Z,24.28
2023-10-09T12:02:29.716Z,24.71
2023-10-09T12:04:58.337Z,24.62
2023-10-09T12:07:28.939Z,24.18
2023-10-09T12:09:58.624Z,24.03
2023-10-09T12:12:28.322Z,24.75
2023-10-09T12:14:57.010Z,24.87
2023-10-09T12:17:27.779Z,24.72
2023-10-09T12:19:57.651Z,24.86
2023-10-09T12:22:28.743Z,25.01
2023-10-09T12:24:58.379Z,25.19
2023-10-09T12:27:26.630Z,25.82
2023-10-09T12:29:58.179Z,25.92
2023-10-09T12:32:37.534Z,26.12
2023-10-09T12:35:18.345Z,26.02
2023-10-09T12:37:47.296Z,25.97
2023-10-09T12:40:25.252Z,25.87
2023-10-09T12:42:56.942Z,25.90
2023-10-09T12:45:27.428Z,25.87
2023-10-09T12:48:00.587Z,25.90
2023-10-09T12:50:35.055Z,26.10
2023-10-09T12:53:08.268Z,26.33
2023-10-09T12:55:41.616Z,25.77
2023-10-09T12:58:13.011Z,25.36
2023-10-09T13:00:45.671Z,25.66
2023-10-09T13:03:20.092Z,26.00
2023-10-09T13:05:56.527Z,25.44
2023-10-09T13:08:32.560Z,25.42
2023-10-09T13:11:12.110Z,25.51
2023-10-09T13:13:42.780Z,26.02
2023-10-09T13:16:15.130Z,26.41
2023-10-09T13:18:51.255Z,26.71
2023-10-09T13:21:21.469Z,26.72
2023-10-09T13:23:52.284Z,26.57
2023-10-09T13:26:33.761Z,26.63
2023-10-09T13:29:04.448Z,26.90
2023-10-09T13:31:38.954Z,27.48
2023-10-09T13:34:11.224Z,27.23
2023-10-09T13:36:39.955Z,27.16
2023-10-09T13:39:25.606Z,27.13
2023-10-09T13:42:01.193Z,26.67
2023-10-09T13:44:30.006Z,26.39
2023-10-09T13:46:59.249Z,26.55
2023-10-09T13:49:31.541Z,26.35
2023-10-09T13:52:02.642Z,26.39
2023-10-09T13:54:40.901Z,26.40
2023-10-09T13:57:12.250Z,26.97
2023-10-09T13:59:44.903Z,26.78
2023-10-09T14:02:19.160Z,26.73
2023-10-09T14:04:49.000Z,27.02
2023-10-09T14:07:19.477Z,26.86
2023-10-09T14:09:56.841Z,26.94
2023-10-09T14:12:31.076Z,26.60
2023-10-09T14:14:59.639Z,26.49
2023-10-09T14:17:29.796Z,26.89
2023-10-09T14:20:20.376Z,26.66
2023-10-09T14:22:53.963Z,26.98
2023-10-09T14:25:23.069Z,26.60
2023-10-09T14:27:54.306Z,25.52
2023-10-09T14:30:31.950Z,25.14
2023-10-09T14:33:03.226Z,25.42
2023-10-09T14:35:34.570Z,25.21
2023-10-09T14:38:06.397Z,24.71
2023-10-09T14:40:34.928Z,24.10
2023-10-09T14:43:04.624Z,23.86
2023-10-09T14:45:32.869Z,23.65
2023-10-09T14:48:01.806Z,23.69
2023-10-09T14:50:30.316Z,23.91
2023-10-09T14:53:02.449Z,23.75
2023-10-09T14:55:32.963Z,23.53
2023-10-09T14:58:01.126Z,23.25
2023-10-09T15:00:35.298Z,22.90
2023-10-09T15:03:04.483Z,22.91
2023-10-09T15:05:36.247Z,23.31
2023-10-09T15:08:05.370Z,23.05
2023-10-09T15:10:33.565Z,22.84
2023-10-09T15:13:01.758Z,22.82
2023-10-09T15:15:32.360Z,22.66
2023-10-09T15:18:00.461Z,22.26
2023-10-09T15:20:29.207Z,22.03
2023-10-09T15:22:57.818Z,22.04
2023-10-09T15:25:26.113Z,22.20
2023-10-09T15:27:54.245Z,22.29
2023-10-09T15:30:22.448Z,22.17
2023-10-09T15:32:52.086Z,22.03
2023-10-09T15:35:20.369Z,21.67
2023-10-09T15:37:48.577Z,21.48
2023-10-09T15:40:20.093Z,21.42
2023-10-09T15:42:55.447Z,21.25
2023-10-09T15:45:23.861Z,21.06
2023-10-09T15:47:53.831Z,20.74
2023-10-09T15:50:25.339Z,20.45
2023-10-09T15:52:55.229Z,20.21
2023-10-09T15:55:25.670Z,20.36
2023-10-09T15:57:55.816Z,20.30
2023-10-09T16:00:29.885Z,20.33
2023-10-09T16:03:02.178Z,20.30
2023-10-09T16:05:31.801Z,20.18
2023-10-09T16:08:01.577Z,20.05
2023-10-09T16:10:30.410Z,19.80
2023-10-09T16:12:59.130Z,19.85
2023-10-09T16:15:28.731Z,19.69
2023-10-09T16:18:04.501Z,19.85
2023-10-09T16:20:34.836Z,19.71
2023-10-09T16:23:06.201Z,19.97
2023-10-09T16:25:42.683Z,19.83
2023-10-09T16:28:11.751Z,19.66
2023-10-09T16:30:44.836Z,19.63
2023-10-09T16:33:18.051Z,19.39
2023-10-09T16:35:50.287Z,19.22
2023-10-09T16:38:18.790Z,19.20
2023-10-09T16:40:55.183Z,19.30
2023-10-09T16:43:26.962Z,19.22
2023-10-09T16:45:58.331Z,19.22
2023-10-09T16:48:29.033Z,19.17
2023-10-09T16:51:06.134Z,19.09
2023-10-09T16:53:38.043Z,19.10
2023-10-09T16:56:11.274Z,18.96
2023-10-09T16:58:40.567Z,19.11
2023-10-09T17:01:11.993Z,18.96
2023-10-09T17:03:44.173Z,19.07
2023-10-09T17:06:19.326Z,19.02
2023-10-09T17:08:49.386Z,19.19
2023-10-09T17:11:21.619Z,19.13
2023-10-09T17:13:50.803Z,19.09
2023-10-09T17:16:21.167Z,18.98
2023-10-09T17:18:50.126Z,18.70
2023-10-09T17:21:24.297Z,18.54
2023-10-09T17:23:55.016Z,18.40
2023-10-09T17:26:24.429Z,18.33
2023-10-09T17:28:53.818Z,18.22
2023-10-09T17:31:24.795Z,18.07
2023-10-09T17:33:55.227Z,18.00
2023-10-09T17:36:27.635Z,17.86
2023-10-09T17:38:56.575Z,17.74
2023-10-09T17:41:25.238Z,17.79
2023-10-09T17:43:53.544Z,17.70
2023-10-09T17:46:22.204Z,17.62
2023-10-09T17:48:52.086Z,17.57
2023-10-09T17:51:40.735Z,17.60
2023-10-09T17:54:10.564Z,17.49
2023-10-09T17:56:38.950Z,17.58
2023-10-09T17:59:12.918Z,17.68
2023-10-09T18:01:41.363Z,17.65
2023-10-09T18:04:11.275Z,17.41
2023-10-09T18:06:41.238Z,17.30
2023-10-09T18:09:17.163Z,17.33
2023-10-09T18:11:46.472Z,17.45
2023-10-09T18:14:15.475Z,17.21
2023-10-09T18:16:44.181Z,17.18
2023-10-09T18:19:15.855Z,17.05
2023-10-09T18:21:52.236Z,16.90
2023-10-09T18:24:26.808Z,16.86
2023-10-09T18:26:55.213Z,16.78
2023-10-09T18:29:25.632Z,16.79
2023-10-09T18:31:54.246Z,16.77
2023-10-09T18:34:22.894Z,16.66
2023-10-09T18:36:53.559Z,16.74
2023-10-09T18:39:24.029Z,16.74
2023-10-09T18:41:53.240Z,16.80
2023-10-09T18:44:22.435Z,16.76
2023-10-09T18:46:50.706Z,16.49
2023-10-09T18:49:19.348Z,16.59
2023-10-09T18:51:48.080Z,16.71
2023-10-09T18:54:17.579Z,16.87
2023-10-09T18:56:45.865Z,16.83
2023-10-09T18:59:15.737Z,16.83
2023-10-09T19:01:44.220Z,16.58
2023-10-09T19:04:14.058Z,16.69
2023-10-09T19:06:42.607Z,16.55
2023-10-09T19:09:13.243Z,16.37
2023-10-09T19:11:44.287Z,16.34
2023-10-09T19:14:14.172Z,16.23
2023-10-09T19:16:42.582Z,16.05
2023-10-09T19:19:13.802Z,16.13
2023-10-09T19:21:44.578Z,16.18
2023-10-09T19:24:14.045Z,16.16
2023-10-09T19:26:44.059Z,16.16
2023-10-09T19:29:12.929Z,16.03
2023-10-09T19:31:43.830Z,15.84
2023-10-09T19:34:14.699Z,15.69
2023-10-09T19:36:48.356Z,15.69
2023-10-09T19:39:18.476Z,15.86
2023-10-09T19:41:48.437Z,15.90
2023-10-09T19:44:18.818Z,15.88
2023-10-09T19:46:47.349Z,15.80
2023-10-09T19:49:15.949Z,15.53
2023-10-09T19:51:44.273Z,15.43
2023-10-09T19:54:12.677Z,15.23
2023-10-09T19:56:43.749Z,15.23
2023-10-09T19:59:13.924Z,15.07
2023-10-09T20:01:42.425Z,14.83
2023-10-09T20:04:10.604Z,14.86
2023-10-09T20:06:40.771Z,14.88
2023-10-09T20:09:13.771Z,14.91
2023-10-09T20:11:44.476Z,14.84
2023-10-09T20:14:14.364Z,14.85
2023-10-09T20:16:42.865Z,14.70
2023-10-09T20:19:11.501Z,14.65
2023-10-09T20:21:40.093Z,14.47
2023-10-09T20:24:08.816Z,14.47
2023-10-09T20:26:43.056Z,14.50
2023-10-09T20:29:14.878Z,14.64
2023-10-09T20:31:46.120Z,14.64
2023-10-09T20:34:14.524Z,14.61
2023-10-09T20:36:43.599Z,14.64
2023-10-09T20:39:12.592Z,14.44
2023-10-09T20:41:41.029Z,14.51
2023-10-09T20:44:11.672Z,14.54
2023-10-09T20:46:44.145Z,14.35
2023-10-09T20:49:15.757Z,14.28
2023-10-09T20:51:56.736Z,14.39
2023-10-09T20:54:26.699Z,14.50
2023-10-09T20:56:55.053Z,14.53
2023-10-09T20:59:24.165Z,14.58
2023-10-09T21:01:54.034Z,14.52
2023-10-09T21:04:22.381Z,14.58
2023-10-09T21:06:50.714Z,14.64
2023-10-09T21:09:19.038Z,14.67
2023-10-09T21:11:48.110Z,14.67
2023-10-09T21:14:18.354Z,14.59
2023-10-09T21:16:47.461Z,14.36
2023-10-09T21:19:17.442Z,14.25
2023-10-09T21:21:45.700Z,14.48
2023-10-09T21:24:15.144Z,14.55
2023-10-09T21:26:43.620Z,14.50
2023-10-09T21:29:13.012Z,14.25
2023-10-09T21:31:41.804Z,14.43
2023-10-09T21:34:11.818Z,14.41
2023-10-09T21:36:41.978Z,14.47
2023-10-09T21:39:10.907Z,14.49
2023-10-09T21:41:40.124Z,14.51
2023-10-09T21:44:14.736Z,14.38
2023-10-09T21:46:44.578Z,14.47
2023-10-09T21:49:13.050Z,14.56
2023-10-09T21:51:42.868Z,14.43
2023-10-09T21:54:11.016Z,14.46
2023-10-09T21:56:39.586Z,14.39
2023-10-09T21:59:10.608Z,14.43
2023-10-09T22:01:39.843Z,14.53
2023-10-09T22:04:08.688Z,14.46
2023-10-09T22:06:38.841Z,14.39
2023-10-09T22:09:08.859Z,14.26
2023-10-09T22:11:37.657Z,14.22
2023-10-09T22:14:06.521Z,14.23
2023-10-09T22:16:34.879Z,14.29
2023-10-09T22:19:13.927Z,14.21
2023-10-09T22:21:48.735Z,14.27
2023-10-09T22:24:22.088Z,14.25
2023-10-09T22:26:52.519Z,14.31
2023-10-09T22:29:21.062Z,14.51
2023-10-09T22:31:49.517Z,14.53
2023-10-09T22:34:21.039Z,14.49
2023-10-09T22:39:34.090Z,14.50
2023-10-09T22:42:04.717Z,14.47
2023-10-09T22:44:34.155Z,14.49
2023-10-09T22:47:08.598Z,14.38
2023-10-09T22:49:37.260Z,14.64
2023-10-09T22:52:12.261Z,14.61
2023-10-09T22:54:43.895Z,14.47
2023-10-09T22:57:14.074Z,14.55
2023-10-09T22:59:46.441Z,14.52
2023-10-09T23:02:23.451Z,14.50
2023-10-09T23:04:57.118Z,14.43
2023-10-09T23:07:25.540Z,14.14
2023-10-09T23:09:56.186Z,14.16
2023-10-09T23:12:36.623Z,14.18
2023-10-09T23:15:10.776Z,14.19
2023-10-09T23:17:49.509Z,14.10
2023-10-09T23:20:23.919Z,14.00
2023-10-09T23:22:53.147Z,14.09
2023-10-09T23:25:30.745Z,14.14
2023-10-09T23:30:59.620Z,14.17
2023-10-09T23:33:31.333Z,14.05
2023-10-09T23:36:06.069Z,14.08
2023-10-09T23:38:36.227Z,14.00
2023-10-09T23:41:10.815Z,13.90
2023-10-09T23:43:47.112Z,13.92
2023-10-09T23:46:19.051Z,13.79
2023-10-09T23:48:50.130Z,13.73
2023-10-09T23:51:20.798Z,13.86
2023-10-09T23:53:53.550Z,13.64
2023-10-09T23:56:36.070Z,13.72
2023-10-09T23:59:12.274Z,13.72
